Time;durP1;ratioP1;P1;durP2;ratioP2;P2;SDS_P1;SDS_P2;PMS_P1;PMS_P2;Temp;Humidity;BMP_temperature;BMP_pressure;BME280_temperature;BME280_humidity;BME280_pressure;Samples;Min_cycle;Max_cycle;Signal;HPM_P1;HPM_P2
2022/02/14 00:01:23;;;;;;;;;;;;;;;;;;5075243;28;19912;-87
2022/02/14 00:03:48;;;;;;;;;;;;;;;;;;5075397;28;19908;-87
2022/02/14 00:06:13;;;;;;;;;;;;;;;;;;5075271;28;19912;-87
2022/02/14 00:08:38;;;;;;;;;;;;;;;;;;5075607;28;19916;-86
2022/02/14 00:11:03;;;;;;;;;;;;;;;;;;5093242;28;19970;-87
2022/02/14 00:13:30;;;;;;;;;;;;;;;;;;5075092;28;19920;-86
2022/02/14 00:15:55;;;;;;;;;;;;;;;;;;5075066;28;19913;-87
2022/02/14 00:18:20;;;;;;;;;;;;;;;;;;5075124;28;19919;-86
2022/02/14 00:20:45;;;;;;;;;;;;;;;;;;5075291;28;20359;-86
2022/02/14 00:23:10;;;;;;;;;;;;;;;;;;5074941;28;19965;-86
2022/02/14 00:25:36;;;;;;;;;;;;;;;;;;5074883;28;19966;-87
2022/02/14 00:28:01;;;;;;;;;;;;;;;;;;5075131;28;19916;-86
2022/02/14 00:30:26;;;;;;;;;;;;;;;;;;5074439;28;20382;-87
2022/02/14 00:32:51;;;;;;;;;;;;;;;;;;5074956;28;19919;-86
2022/02/14 00:35:16;;;;;;;;;;;;;;;;;;5074991;28;19920;-87
2022/02/14 00:37:41;;;;;;;;;;;;;;;;;;5075121;28;19912;-87
2022/02/14 00:40:06;;;;;;;;;;;;;;;;;;5075030;28;19912;-87
2022/02/14 00:42:31;;;;;;;;;;;;;;;;;;5074510;28;19916;-86
2022/02/14 00:44:56;;;;;;;;;;;;;;;;;;5075040;28;20283;-86
2022/02/14 00:47:21;;;;;;;;;;;;;;;;;;5075089;28;19916;-86
2022/02/14 00:49:46;;;;;;;;;;;;;;;;;;5074493;28;19916;-86
2022/02/14 00:52:12;;;;;;;;;;;;;;;;;;5074647;28;20465;-86
2022/02/14 00:54:37;;;;;;;;;;;;;;;;;;5074827;28;19912;-87
2022/02/14 00:57:02;;;;;;;;;;;;;;;;;;5074610;28;19924;-87
2022/02/14 00:59:27;;;;;;;;;;;;;;;;;;5074573;28;19934;-87
2022/02/14 01:01:52;;;;;;;;;;;;;;;;;;5074475;28;20394;-86
2022/02/14 01:04:18;;;;;;;;;;;;;;;;;;5074808;28;19966;-87
2022/02/14 01:06:43;;;;;;;;;;;;;;;;;;5074790;28;19912;-87
2022/02/14 01:09:09;;;;;;;;;;;;;;;;;;5074472;28;20383;-87
2022/02/14 01:11:34;;;;;;;;;;;;;;;;;;5074604;28;19951;-86
2022/02/14 01:13:59;;;;;;;;;;;;;;;;;;5074632;28;19912;-87
2022/02/14 01:16:24;;;;;;;;;;;;;;;;;;5074041;28;20355;-87
2022/02/14 01:18:49;;;;;;;;;;;;;;;;;;5092561;28;19913;-87
2022/02/14 01:21:15;;;;;;;;;;;;;;;;;;5074473;28;19919;-86
2022/02/14 01:23:40;;;;;;;;;;;;;;;;;;5074742;28;20267;-87
2022/02/14 01:26:05;;;;;;;;;;;;;;;;;;5074679;28;19912;-87
2022/02/14 01:28:30;;;;;;;;;;;;;;;;;;5074295;28;19920;-87
2022/02/14 01:30:55;;;;;;;;;;;;;;;;;;5074365;28;19973;-87
2022/02/14 01:33:21;;;;;;;;;;;;;;;;;;5074434;28;19981;-87
2022/02/14 01:35:46;;;;;;;;;;;;;;;;;;5075821;28;19947;-87
2022/02/14 01:38:11;;;;;;;;;;;;;;;;;;5078028;28;20380;-87
2022/02/14 01:40:36;;;;;;;;;;;;;;;;;;5077800;28;20314;-87
2022/02/14 01:43:01;;;;;;;;;;;;;;;;;;5077825;28;19945;-87
2022/02/14 01:45:26;;;;;;;;;;;;;;;;;;5077820;28;19919;-86
2022/02/14 01:47:51;;;;;;;;;;;;;;;;;;5077872;28;19919;-87
2022/02/14 01:50:16;;;;;;;;;;;;;;;;;;5077837;28;20020;-87
2022/02/14 01:52:42;;;;;;;;;;;;;;;;;;5077666;28;19935;-87
2022/02/14 01:55:07;;;;;;;;;;;;;;;;;;5078081;28;19971;-87
2022/02/14 01:57:32;;;;;;;;;;;;;;;;;;5095868;28;20002;-87
2022/02/14 02:00:00;;;;;;;;;;;;;;;;;;5077293;28;20003;-87
2022/02/14 02:02:26;;;;;;;;;;;;;;;;;;5077850;28;19912;-86
2022/02/14 02:04:51;;;;;;;;;;;;;;;;;;5077832;28;20497;-86
2022/02/14 02:07:16;;;;;;;;;;;;;;;;;;5077499;28;19974;-86
2022/02/14 02:09:41;;;;;;;;;;;;;;;;;;5077597;28;20417;-87
2022/02/14 02:12:28;;;;;;;;;;;;;;;;;;5077244;28;19912;-87
2022/02/14 02:14:53;;;;;;;;;;;;;;;;;;5077143;28;19941;-86
2022/02/14 02:17:18;;;;;;;;;;;;;;;;;;5077113;28;20003;-87
2022/02/14 02:19:43;;;;;;;;;;;;;;;;;;5077157;28;19919;-87
2022/02/14 02:22:08;;;;;;;;;;;;;;;;;;5076992;28;19919;-86
2022/02/14 02:24:33;;;;;;;;;;;;;;;;;;5076806;28;19946;-87
2022/02/14 02:26:59;;;;;;;;;;;;;;;;;;5077251;28;19912;-86
2022/02/14 02:29:24;;;;;;;;;;;;;;;;;;5076844;28;20283;-86
2022/02/14 02:31:49;;;;;;;;;;;;;;;;;;5076668;28;19947;-87
2022/02/14 02:34:14;;;;;;;;;;;;;;;;;;5076851;28;19916;-86
2022/02/14 02:36:39;;;;;;;;;;;;;;;;;;5076823;28;20413;-86
2022/02/14 02:39:05;;;;;;;;;;;;;;;;;;5094431;28;19920;-86
2022/02/14 02:41:30;;;;;;;;;;;;;;;;;;5075367;28;19919;-86
2022/02/14 02:43:55;;;;;;;;;;;;;;;;;;5076645;28;20354;-86
2022/02/14 02:46:20;;;;;;;;;;;;;;;;;;5076680;28;19943;-86
2022/02/14 02:48:45;;;;;;;;;;;;;;;;;;5076491;28;20054;-86
2022/02/14 02:51:10;;;;;;;;;;;;;;;;;;5076545;28;19931;-87
2022/02/14 02:53:36;;;;;;;;;;;;;;;;;;5076588;28;20284;-87
2022/02/14 02:56:01;;;;;;;;;;;;;;;;;;5094747;28;20398;-86
2022/02/14 02:58:26;;;;;;;;;;;;;;;;;;5076480;28;20000;-86
2022/02/14 03:00:51;;;;;;;;;;;;;;;;;;5076213;28;19943;-86
2022/02/14 03:03:16;;;;;;;;;;;;;;;;;;5076407;28;19959;-87
2022/02/14 03:05:41;;;;;;;;;;;;;;;;;;5094710;28;19998;-86
2022/02/14 03:08:06;;;;;;;;;;;;;;;;;;5076170;28;20006;-85
2022/02/14 03:10:31;;;;;;;;;;;;;;;;;;5094303;28;20413;-87
2022/02/14 03:12:56;;;;;;;;;;;;;;;;;;5076428;28;19912;-86
2022/02/14 03:15:22;;;;;;;;;;;;;;;;;;5075662;28;19956;-87
2022/02/14 03:17:47;;;;;;;;;;;;;;;;;;5075837;28;20015;-87
2022/02/14 03:20:12;;;;;;;;;;;;;;;;;;5094149;28;19923;-86
2022/02/14 03:22:37;;;;;;;;;;;;;;;;;;5076137;28;19912;-86
2022/02/14 03:25:02;;;;;;;;;;;;;;;;;;5075872;28;19923;-87
2022/02/14 03:27:27;;;;;;;;;;;;;;;;;;5075900;28;19977;-86
2022/02/14 03:29:52;;;;;;;;;;;;;;;;;;5094094;28;20474;-86
2022/02/14 03:32:17;;;;;;;;;;;;;;;;;;5075979;28;20003;-86
2022/02/14 03:34:42;;;;;;;;;;;;;;;;;;5093689;28;19923;-86
2022/02/14 03:37:08;;;;;;;;;;;;;;;;;;5094117;28;19956;-86
2022/02/14 03:39:33;;;;;;;;;;;;;;;;;;5075392;28;20344;-86
2022/02/14 03:41:58;;;;;;;;;;;;;;;;;;5075731;28;19912;-86
2022/02/14 03:44:23;;;;;;;;;;;;;;;;;;5075694;28;19923;-86
2022/02/14 03:46:48;;;;;;;;;;;;;;;;;;5075239;28;19947;-87
2022/02/14 03:49:13;;;;;;;;;;;;;;;;;;5075671;28;19995;-86
2022/02/14 03:51:39;;;;;;;;;;;;;;;;;;5075332;28;20015;-86
2022/02/14 03:54:04;;;;;;;;;;;;;;;;;;5075439;28;19916;-86
2022/02/14 03:56:29;;;;;;;;;;;;;;;;;;5075667;28;19912;-87
2022/02/14 03:58:54;;;;;;;;;;;;;;;;;;5074586;28;19916;-86
2022/02/14 04:01:19;;;;;;;;;;;;;;;;;;5075673;28;20282;-86
2022/02/14 04:03:44;;;;;;;;;;;;;;;;;;5075553;28;20378;-86
2022/02/14 04:06:09;;;;;;;;;;;;;;;;;;5074811;28;19912;-86
2022/02/14 04:08:35;;;;;;;;;;;;;;;;;;5075048;28;19912;-87
2022/02/14 04:11:00;;;;;;;;;;;;;;;;;;5074511;28;19920;-87
2022/02/14 04:13:25;;;;;;;;;;;;;;;;;;5075305;28;20326;-86
2022/02/14 04:15:50;;;;;;;;;;;;;;;;;;5075060;28;19908;-86
2022/02/14 04:18:15;;;;;;;;;;;;;;;;;;5074841;28;19919;-86
2022/02/14 04:20:40;;;;;;;;;;;;;;;;;;5075202;28;19934;-86
2022/02/14 04:23:05;;;;;;;;;;;;;;;;;;5075262;28;20358;-86
2022/02/14 04:25:31;;;;;;;;;;;;;;;;;;5074947;28;19938;-86
2022/02/14 04:27:56;;;;;;;;;;;;;;;;;;5075032;28;19908;-87
2022/02/14 04:30:24;;;;;;;;;;;;;;;;;;5074721;28;20283;-86
2022/02/14 04:32:49;;;;;;;;;;;;;;;;;;5074919;28;19913;-86
2022/02/14 04:35:14;;;;;;;;;;;;;;;;;;5075030;28;20279;-86
2022/02/14 04:37:40;;;;;;;;;;;;;;;;;;5074894;28;19913;-86
2022/02/14 04:40:05;;;;;;;;;;;;;;;;;;5075471;28;20450;-86
2022/02/14 04:42:30;;;;;;;;;;;;;;;;;;5074763;28;19912;-86
2022/02/14 04:44:55;;;;;;;;;;;;;;;;;;5074743;28;20402;-86
2022/02/14 04:47:20;;;;;;;;;;;;;;;;;;5075286;28;19912;-86
2022/02/14 04:49:45;;;;;;;;;;;;;;;;;;5074773;28;19916;-87
2022/02/14 04:52:10;;;;;;;;;;;;;;;;;;5074813;28;19912;-87
2022/02/14 04:54:35;;;;;;;;;;;;;;;;;;5074767;28;19960;-87
2022/02/14 04:57:00;;;;;;;;;;;;;;;;;;5074611;28;19985;-86
2022/02/14 04:59:26;;;;;;;;;;;;;;;;;;5074681;28;19919;-87
2022/02/14 05:01:51;;;;;;;;;;;;;;;;;;5092978;28;19923;-86
2022/02/14 05:04:20;;;;;;;;;;;;;;;;;;5074996;28;19953;-86
2022/02/14 05:06:45;;;;;;;;;;;;;;;;;;5075287;28;20348;-87
2022/02/14 05:09:10;;;;;;;;;;;;;;;;;;5074176;28;19912;-87
2022/02/14 05:11:35;;;;;;;;;;;;;;;;;;5077552;28;19918;-87
2022/02/14 05:14:00;;;;;;;;;;;;;;;;;;5078628;28;19977;-86
2022/02/14 05:16:25;;;;;;;;;;;;;;;;;;5078634;28;20322;-87
2022/02/14 05:18:50;;;;;;;;;;;;;;;;;;5078422;28;19912;-87
2022/02/14 05:21:15;;;;;;;;;;;;;;;;;;5078486;28;19912;-87
2022/02/14 05:23:40;;;;;;;;;;;;;;;;;;5078653;28;19912;-87
2022/02/14 05:26:06;;;;;;;;;;;;;;;;;;5078475;28;19912;-87
2022/02/14 05:28:31;;;;;;;;;;;;;;;;;;5078334;28;20564;-87
2022/02/14 05:30:56;;;;;;;;;;;;;;;;;;5077842;28;19920;-87
2022/02/14 05:33:21;;;;;;;;;;;;;;;;;;5078092;28;19973;-87
2022/02/14 05:35:46;;;;;;;;;;;;;;;;;;5078077;28;19921;-87
2022/02/14 05:38:11;;;;;;;;;;;;;;;;;;5077820;28;19916;-87
2022/02/14 05:40:36;;;;;;;;;;;;;;;;;;5077803;28;19912;-86
2022/02/14 05:43:01;;;;;;;;;;;;;;;;;;5078162;28;20392;-86
2022/02/14 05:45:26;;;;;;;;;;;;;;;;;;5096139;28;19912;-87
2022/02/14 05:47:52;;;;;;;;;;;;;;;;;;5077919;28;19920;-87
2022/02/14 05:50:17;;;;;;;;;;;;;;;;;;5077924;28;19916;-87
2022/02/14 05:52:44;;;;;;;;;;;;;;;;;;5077605;28;19916;-87
2022/02/14 05:55:09;;;;;;;;;;;;;;;;;;5096251;28;20360;-87
2022/02/14 05:57:34;;;;;;;;;;;;;;;;;;5077551;28;20363;-86
2022/02/14 05:59:59;;;;;;;;;;;;;;;;;;5077112;28;19958;-87
2022/02/14 06:02:24;;;;;;;;;;;;;;;;;;5077632;28;19916;-86
2022/02/14 06:04:50;;;;;;;;;;;;;;;;;;5077682;28;19961;-86
2022/02/14 06:07:15;;;;;;;;;;;;;;;;;;5077629;28;19912;-87
2022/02/14 06:09:40;;;;;;;;;;;;;;;;;;5077688;28;20010;-87
2022/02/14 06:12:05;;;;;;;;;;;;;;;;;;5076973;28;19935;-87
2022/02/14 06:14:32;;;;;;;;;;;;;;;;;;5077527;28;19924;-87
2022/02/14 06:16:57;;;;;;;;;;;;;;;;;;5077520;28;19912;-87
2022/02/14 06:19:22;;;;;;;;;;;;;;;;;;5076847;28;19916;-87
2022/02/14 06:21:47;;;;;;;;;;;;;;;;;;5076652;28;20274;-87
2022/02/14 06:24:12;;;;;;;;;;;;;;;;;;5076988;28;20344;-86
2022/02/14 06:26:37;;;;;;;;;;;;;;;;;;5077371;28;19918;-87
2022/02/14 06:29:02;;;;;;;;;;;;;;;;;;5077155;28;19916;-87
2022/02/14 06:31:27;;;;;;;;;;;;;;;;;;5077393;28;20639;-86
2022/02/14 06:33:53;;;;;;;;;;;;;;;;;;5077010;28;19916;-86
2022/02/14 06:36:18;;;;;;;;;;;;;;;;;;5077006;28;19912;-87
2022/02/14 06:38:43;;;;;;;;;;;;;;;;;;5074646;28;19927;-86
2022/02/14 06:41:08;;;;;;;;;;;;;;;;;;5077845;28;19912;-87
2022/02/14 06:43:33;;;;;;;;;;;;;;;;;;5076894;28;20355;-87
2022/02/14 06:45:58;;;;;;;;;;;;;;;;;;5074188;28;19912;-87
2022/02/14 06:48:23;;;;;;;;;;;;;;;;;;5089639;28;19912;-88
2022/02/14 06:50:48;;;;;;;;;;;;;;;;;;5077391;28;20359;-88
2022/02/14 06:53:13;;;;;;;;;;;;;;;;;;5080913;28;19912;-88
2022/02/14 06:55:39;;;;;;;;;;;;;;;;;;5082055;28;19912;-88
2022/02/14 06:58:04;;;;;;;;;;;;;;;;;;5095091;28;19931;-88
2022/02/14 07:00:29;;;;;;;;;;;;;;;;;;5077290;28;19911;-87
2022/02/14 07:02:54;;;;;;;;;;;;;;;;;;5067161;28;20383;-88
2022/02/14 07:05:22;;;;;;;;;;;;;;;;;;5094223;28;19912;-87
2022/02/14 07:07:47;;;;;;;;;;;;;;;;;;5076697;28;20355;-88
2022/02/14 07:10:13;;;;;;;;;;;;;;;;;;5094582;28;19916;-87
2022/02/14 07:12:38;;;;;;;;;;;;;;;;;;5076548;28;20005;-87
2022/02/14 07:15:04;;;;;;;;;;;;;;;;;;5094482;28;19912;-88
2022/02/14 07:17:29;;;;;;;;;;;;;;;;;;5076803;28;19912;-87
2022/02/14 07:19:54;;;;;;;;;;;;;;;;;;5074333;28;19919;-86
2022/02/14 07:22:20;;;;;;;;;;;;;;;;;;5075828;28;19982;-88
2022/02/14 07:24:45;;;;;;;;;;;;;;;;;;5076061;28;19917;-88
2022/02/14 07:27:10;;;;;;;;;;;;;;;;;;5076229;28;19913;-88
2022/02/14 07:29:35;;;;;;;;;;;;;;;;;;5076151;28;19924;-89
2022/02/14 07:32:00;;;;;;;;;;;;;;;;;;5075988;28;19912;-80
2022/02/14 07:34:25;;;;;;;;;;;;;;;;;;5075081;28;19923;-81
2022/02/14 07:36:50;;;;;;;;;;;;;;;;;;5075761;28;20010;-80
2022/02/14 07:39:16;;;;;;;;;;;;;;;;;;5075584;28;19911;-80
2022/02/14 07:41:41;;;;;;;;;;;;;;;;;;5075635;28;19919;-80
2022/02/14 07:44:06;;;;;;;;;;;;;;;;;;5075789;28;19950;-80
2022/02/14 07:46:31;;;;;;;;;;;;;;;;;;5075677;28;19916;-82
2022/02/14 07:48:56;;;;;;;;;;;;;;;;;;5075793;28;19923;-80
2022/02/14 07:51:22;;;;;;;;;;;;;;;;;;5075533;28;20042;-81
2022/02/14 07:53:47;;;;;;;;;;;;;;;;;;5075620;28;19912;-80
2022/02/14 07:56:13;;;;;;;;;;;;;;;;;;5074767;28;20375;-80
2022/02/14 07:58:38;;;;;;;;;;;;;;;;;;5073609;28;20360;-80
2022/02/14 08:01:03;;;;;;;;;;;;;;;;;;5093114;28;19952;-80
2022/02/14 08:03:29;;;;;;;;;;;;;;;;;;5075356;28;19919;-80
2022/02/14 08:05:54;;;;;;;;;;;;;;;;;;5074571;28;19920;-80
2022/02/14 08:08:19;;;;;;;;;;;;;;;;;;5074846;28;20006;-80
2022/02/14 08:10:44;;;;;;;;;;;;;;;;;;5075260;28;19920;-81
2022/02/14 08:13:09;;;;;;;;;;;;;;;;;;5075400;28;19958;-80
2022/02/14 08:15:34;;;;;;;;;;;;;;;;;;5075284;28;19920;-80
2022/02/14 08:18:04;;;;;;;;;;;;;;;;;;5074359;28;20279;-80
2022/02/14 08:20:29;;;;;;;;;;;;;;;;;;5075386;28;19960;-80
2022/02/14 08:22:54;;;;;;;;;;;;;;;;;;5093665;28;19998;-80
2022/02/14 08:25:20;;;;;;;;;;;;;;;;;;5075410;28;19913;-80
2022/02/14 08:27:45;;;;;;;;;;;;;;;;;;5074915;28;19978;-80
2022/02/14 08:30:10;;;;;;;;;;;;;;;;;;5091795;28;20406;-80
2022/02/14 08:32:35;;;;;;;;;;;;;;;;;;5075182;28;19913;-79
2022/02/14 08:35:00;;;;;;;;;;;;;;;;;;5075315;28;19927;-80
2022/02/14 08:37:25;;;;;;;;;;;;;;;;;;5075110;28;20371;-81
2022/02/14 08:39:50;;;;;;;;;;;;;;;;;;5075116;28;20288;-80
2022/02/14 08:42:15;;;;;;;;;;;;;;;;;;5075186;28;19913;-80
2022/02/14 08:44:41;;;;;;;;;;;;;;;;;;5076534;28;19948;-80
2022/02/14 08:47:06;;;;;;;;;;;;;;;;;;5095784;28;20298;-80
2022/02/14 08:49:35;;;;;;;;;;;;;;;;;;5078515;28;19920;-79
2022/02/14 08:52:00;;;;;;;;;;;;;;;;;;5078897;28;19920;-80
2022/02/14 08:54:25;;;;;;;;;;;;;;;;;;5078240;28;19980;-80
2022/02/14 08:56:50;;;;;;;;;;;;;;;;;;5077351;28;20416;-79
2022/02/14 08:59:19;;;;;;;;;;;;;;;;;;5078917;28;19911;-80
2022/02/14 09:01:44;;;;;;;;;;;;;;;;;;5078310;28;19912;-80
2022/02/14 09:04:09;;;;;;;;;;;;;;;;;;5078460;28;19912;-80
2022/02/14 09:06:34;;;;;;;;;;;;;;;;;;5079166;28;19912;-80
2022/02/14 09:09:00;;;;;;;;;;;;;;;;;;5096449;28;19947;-80
2022/02/14 09:11:25;;;;;;;;;;;;;;;;;;5078670;28;19977;-80
2022/02/14 09:13:50;;;;;;;;;;;;;;;;;;5078816;28;19916;-80
2022/02/14 09:16:15;;;;;;;;;;;;;;;;;;5078343;28;20321;-81
2022/02/14 09:18:41;;;;;;;;;;;;;;;;;;5096699;28;19912;-80
2022/02/14 09:21:06;;;;;;;;;;;;;;;;;;5078427;28;20321;-80
2022/02/14 09:23:31;;;;;;;;;;;;;;;;;;5078403;28;19923;-80
2022/02/14 09:25:56;;;;;;;;;;;;;;;;;;5078529;28;19915;-81
2022/02/14 09:28:21;;;;;;;;;;;;;;;;;;5096387;28;19959;-81
2022/02/14 09:30:47;;;;;;;;;;;;;;;;;;5077903;28;19916;-80
2022/02/14 09:33:12;;;;;;;;;;;;;;;;;;5077726;28;19912;-80
2022/02/14 09:35:38;;;;;;;;;;;;;;;;;;5078250;28;19916;-81
2022/02/14 09:38:03;;;;;;;;;;;;;;;;;;5078192;28;20343;-80
2022/02/14 09:40:28;;;;;;;;;;;;;;;;;;5078154;28;19965;-81
2022/02/14 09:42:54;;;;;;;;;;;;;;;;;;5096304;28;20348;-80
2022/02/14 09:45:19;;;;;;;;;;;;;;;;;;5076281;28;19911;-80
2022/02/14 09:47:44;;;;;;;;;;;;;;;;;;5077701;28;19912;-80
2022/02/14 09:50:09;;;;;;;;;;;;;;;;;;5078210;28;19916;-80
2022/02/14 09:52:35;;;;;;;;;;;;;;;;;;5078105;28;20367;-80
2022/02/14 09:55:00;;;;;;;;;;;;;;;;;;5077456;28;19959;-80
2022/02/14 09:57:25;;;;;;;;;;;;;;;;;;5076690;28;19919;-80
2022/02/14 09:59:50;;;;;;;;;;;;;;;;;;5077893;28;19962;-80
2022/02/14 10:02:15;;;;;;;;;;;;;;;;;;5076397;28;19912;-80
2022/02/14 10:04:40;;;;;;;;;;;;;;;;;;5077626;28;19920;-80
2022/02/14 10:07:05;;;;;;;;;;;;;;;;;;5077264;28;19935;-81
2022/02/14 10:09:31;;;;;;;;;;;;;;;;;;5077328;28;20371;-81
2022/02/14 10:11:56;;;;;;;;;;;;;;;;;;5095608;28;19924;-82
2022/02/14 10:14:21;;;;;;;;;;;;;;;;;;5077605;28;19919;-81
2022/02/14 10:16:46;;;;;;;;;;;;;;;;;;5095398;28;19919;-81
2022/02/14 10:19:11;;;;;;;;;;;;;;;;;;5077414;28;19912;-81
2022/02/14 10:21:36;;;;;;;;;;;;;;;;;;5077731;28;19919;-81
2022/02/14 10:24:01;;;;;;;;;;;;;;;;;;5077101;28;19977;-81
2022/02/14 10:26:26;;;;;;;;;;;;;;;;;;5077276;28;19916;-81
2022/02/14 10:28:51;;;;;;;;;;;;;;;;;;5076022;28;19935;-81
2022/02/14 10:31:18;;;;;;;;;;;;;;;;;;5074229;28;19928;-81
2022/02/14 10:33:43;;;;;;;;;;;;;;;;;;5077340;28;19912;-82
2022/02/14 10:36:08;;;;;;;;;;;;;;;;;;5076108;28;19916;-81
2022/02/14 10:38:33;;;;;;;;;;;;;;;;;;5076388;28;19916;-82
2022/02/14 10:40:59;;;;;;;;;;;;;;;;;;5077384;28;20324;-82
2022/02/14 10:43:24;;;;;;;;;;;;;;;;;;5095370;28;19908;-82
2022/02/14 10:45:49;;;;;;;;;;;;;;;;;;5076767;28;19912;-82
2022/02/14 10:48:14;;;;;;;;;;;;;;;;;;5077102;28;19952;-82
2022/02/14 10:50:40;;;;;;;;;;;;;;;;;;5076855;28;19944;-81
2022/02/14 10:53:05;;;;;;;;;;;;;;;;;;5077025;28;20342;-82
2022/02/14 10:55:32;;;;;;;;;;;;;;;;;;5076985;28;19911;-82
2022/02/14 10:57:57;;;;;;;;;;;;;;;;;;5076802;28;19919;-81
2022/02/14 11:00:22;;;;;;;;;;;;;;;;;;5076738;28;19920;-82
2022/02/14 11:02:47;;;;;;;;;;;;;;;;;;5076952;28;19908;-81
2022/02/14 11:05:12;;;;;;;;;;;;;;;;;;5076615;28;20359;-82
2022/02/14 11:07:37;;;;;;;;;;;;;;;;;;5076517;28;20328;-83
2022/02/14 11:10:02;;;;;;;;;;;;;;;;;;5076406;28;19951;-83
2022/02/14 11:12:29;;;;;;;;;;;;;;;;;;5076722;28;19919;-83
2022/02/14 11:14:55;;;;;;;;;;;;;;;;;;5076823;28;19912;-83
2022/02/14 11:17:20;;;;;;;;;;;;;;;;;;5076267;28;20271;-83
2022/02/14 11:19:47;;;;;;;;;;;;;;;;;;5077469;28;20007;-83
2022/02/14 11:22:13;;;;;;;;;;;;;;;;;;5076209;28;19965;-83
2022/02/14 11:24:39;;;;;;;;;;;;;;;;;;5076374;28;19912;-83
2022/02/14 11:27:05;;;;;;;;;;;;;;;;;;5075709;28;20359;-82
2022/02/14 11:29:30;;;;;;;;;;;;;;;;;;5076324;28;20397;-83
2022/02/14 11:31:55;;;;;;;;;;;;;;;;;;5076299;28;20511;-83
2022/02/14 11:34:21;;;;;;;;;;;;;;;;;;5075884;28;19918;-83
2022/02/14 11:36:46;;;;;;;;;;;;;;;;;;5076174;28;19913;-83
2022/02/14 11:39:11;;;;;;;;;;;;;;;;;;5076177;28;19908;-83
2022/02/14 11:41:36;;;;;;;;;;;;;;;;;;5075823;28;19912;-83
2022/02/14 11:44:01;;;;;;;;;;;;;;;;;;5076097;28;19912;-83
2022/02/14 11:46:26;;;;;;;;;;;;;;;;;;5075839;28;19908;-83
2022/02/14 11:48:52;;;;;;;;;;;;;;;;;;5093958;28;20363;-83
2022/02/14 11:51:17;;;;;;;;;;;;;;;;;;5077799;28;19920;-83
2022/02/14 11:53:44;;;;;;;;;;;;;;;;;;5075786;28;19912;-83
2022/02/14 11:56:09;;;;;;;;;;;;;;;;;;5080721;28;20042;-84
2022/02/14 11:58:34;;;;;;;;;;;;;;;;;;5075940;28;19958;-83
2022/02/14 12:00:59;;;;;;;;;;;;;;;;;;5076234;28;20023;-83
2022/02/14 12:03:24;;;;;;;;;;;;;;;;;;5076685;28;20326;-83
2022/02/14 12:05:50;;;;;;;;;;;;;;;;;;5075693;28;19995;-83
2022/02/14 12:08:16;;;;;;;;;;;;;;;;;;5079628;28;19912;-83
2022/02/14 12:10:41;;;;;;;;;;;;;;;;;;5074379;28;19912;-83
2022/02/14 12:13:08;;;;;;;;;;;;;;;;;;5087695;28;19912;-83
2022/02/14 12:20:42;;;;;;;;;;;;;;;;;;5088169;28;20028;-84
2022/02/14 12:23:07;;;;;;;;;;;;;;;;;;5075214;28;19916;-84
2022/02/14 12:25:33;;;;;;;;;;;;;;;;;;5074934;28;19916;-84
2022/02/14 12:27:58;;;;;;;;;;;;;;;;;;5094194;28;19916;-84
2022/02/14 12:30:23;;;;;;;;;;;;;;;;;;5069987;28;19923;-84
2022/02/14 12:32:48;;;;;;;;;;;;;;;;;;5075895;28;20287;-83
2022/02/14 12:35:13;;;;;;;;;;;;;;;;;;5075296;28;19961;-83
2022/02/14 12:37:38;;;;;;;;;;;;;;;;;;5082091;28;19958;-84
2022/02/14 12:40:03;;;;;;;;;;;;;;;;;;5075172;28;19960;-84
2022/02/14 12:42:28;;;;;;;;;;;;;;;;;;5067354;28;19971;-84
2022/02/14 12:44:54;;;;;;;;;;;;;;;;;;5070867;28;20386;-84
2022/02/14 12:47:19;;;;;;;;;;;;;;;;;;5074995;28;19920;-84
2022/02/14 12:49:44;;;;;;;;;;;;;;;;;;5074739;28;19916;-84
2022/02/14 12:52:09;;;;;;;;;;;;;;;;;;5074833;28;19917;-85
2022/02/14 12:54:34;;;;;;;;;;;;;;;;;;5075143;28;19916;-84
2022/02/14 12:56:59;;;;;;;;;;;;;;;;;;5074550;28;20310;-84
2022/02/14 12:59:24;;;;;;;;;;;;;;;;;;5074881;28;19916;-84
2022/02/14 13:01:49;;;;;;;;;;;;;;;;;;5073899;28;19958;-83
2022/02/14 13:04:14;;;;;;;;;;;;;;;;;;5074631;28;19943;-84
2022/02/14 13:06:40;;;;;;;;;;;;;;;;;;5074703;28;20529;-84
2022/02/14 13:09:05;;;;;;;;;;;;;;;;;;5074928;28;19919;-84
2022/02/14 13:11:30;;;;;;;;;;;;;;;;;;5074923;28;19969;-84
2022/02/14 13:13:55;;;;;;;;;;;;;;;;;;5075002;28;19912;-84
2022/02/14 13:16:20;;;;;;;;;;;;;;;;;;5074514;28;20283;-84
2022/02/14 13:18:46;;;;;;;;;;;;;;;;;;5074733;28;19919;-84
2022/02/14 13:21:11;;;;;;;;;;;;;;;;;;5070586;28;19923;-83
2022/02/14 13:23:36;;;;;;;;;;;;;;;;;;5066990;28;19920;-84
2022/02/14 13:26:01;;;;;;;;;;;;;;;;;;5095313;28;20002;-84
2022/02/14 13:28:26;;;;;;;;;;;;;;;;;;5090844;28;19996;-84
2022/02/14 13:30:54;;;;;;;;;;;;;;;;;;5074715;28;19969;-84
2022/02/14 13:33:19;;;;;;;;;;;;;;;;;;5096604;28;19912;-83
2022/02/14 13:35:45;;;;;;;;;;;;;;;;;;5077197;28;19919;-85
2022/02/14 13:38:10;;;;;;;;;;;;;;;;;;5078341;28;19912;-85
2022/02/14 13:40:35;;;;;;;;;;;;;;;;;;5077972;28;19912;-84
2022/02/14 13:43:01;;;;;;;;;;;;;;;;;;5078443;28;20002;-85
2022/02/14 13:45:26;;;;;;;;;;;;;;;;;;5096258;28;19912;-86
2022/02/14 13:47:51;;;;;;;;;;;;;;;;;;5073414;28;19927;-85
2022/02/14 13:50:16;;;;;;;;;;;;;;;;;;5077837;28;20359;-85
2022/02/14 13:52:42;;;;;;;;;;;;;;;;;;5096399;28;20297;-85
2022/02/14 13:55:07;;;;;;;;;;;;;;;;;;5077671;28;19919;-85
2022/02/14 13:57:32;;;;;;;;;;;;;;;;;;5096089;28;19919;-85
2022/02/14 13:59:57;;;;;;;;;;;;;;;;;;5078046;28;19908;-85
2022/02/14 14:02:23;;;;;;;;;;;;;;;;;;5096435;28;19916;-85
2022/02/14 14:04:49;;;;;;;;;;;;;;;;;;5078228;28;19908;-85
2022/02/14 14:07:15;;;;;;;;;;;;;;;;;;5077817;28;20039;-85
2022/02/14 14:09:40;;;;;;;;;;;;;;;;;;5078047;28;20426;-85
2022/02/14 14:12:05;;;;;;;;;;;;;;;;;;5077847;28;19954;-85
2022/02/14 14:14:31;;;;;;;;;;;;;;;;;;5078121;28;19995;-85
2022/02/14 14:16:56;;;;;;;;;;;;;;;;;;5077994;28;19912;-84
2022/02/14 14:19:21;;;;;;;;;;;;;;;;;;5095957;28;19919;-85
2022/02/14 14:21:46;;;;;;;;;;;;;;;;;;5077732;28;19919;-84
2022/02/14 14:24:11;;;;;;;;;;;;;;;;;;5077753;28;19935;-84
2022/02/14 14:26:36;;;;;;;;;;;;;;;;;;5096005;28;20359;-84
2022/02/14 14:29:01;;;;;;;;;;;;;;;;;;5077676;28;20375;-84
2022/02/14 14:31:26;;;;;;;;;;;;;;;;;;5077500;28;20000;-84
2022/02/14 14:33:52;;;;;;;;;;;;;;;;;;5077634;28;20278;-84
2022/02/14 14:36:17;;;;;;;;;;;;;;;;;;5077604;28;19923;-84
2022/02/14 14:38:42;;;;;;;;;;;;;;;;;;5095488;28;19919;-84
2022/02/14 14:41:07;;;;;;;;;;;;;;;;;;5077679;28;20375;-85
2022/02/14 14:43:32;;;;;;;;;;;;;;;;;;5076896;28;19935;-84
2022/02/14 14:45:57;;;;;;;;;;;;;;;;;;5077425;28;19920;-84
2022/02/14 14:48:23;;;;;;;;;;;;;;;;;;5077312;28;19923;-85
2022/02/14 14:50:48;;;;;;;;;;;;;;;;;;5076971;28;19923;-85
2022/02/14 14:53:13;;;;;;;;;;;;;;;;;;5077248;28;20295;-85
2022/02/14 14:55:38;;;;;;;;;;;;;;;;;;5077091;28;19964;-85
2022/02/14 14:58:03;;;;;;;;;;;;;;;;;;5076869;28;20402;-85
2022/02/14 15:00:29;;;;;;;;;;;;;;;;;;5095282;28;19919;-85
2022/02/14 15:02:54;;;;;;;;;;;;;;;;;;5076804;28;19912;-85
2022/02/14 15:05:19;;;;;;;;;;;;;;;;;;5077057;28;19917;-84
2022/02/14 15:07:44;;;;;;;;;;;;;;;;;;5077113;28;20280;-84
2022/02/14 15:10:09;;;;;;;;;;;;;;;;;;5076649;28;19916;-85
2022/02/14 15:12:36;;;;;;;;;;;;;;;;;;5076801;28;19916;-85
2022/02/14 15:15:01;;;;;;;;;;;;;;;;;;5076378;28;19919;-84
2022/02/14 15:17:27;;;;;;;;;;;;;;;;;;5076400;28;19913;-84
2022/02/14 15:19:52;;;;;;;;;;;;;;;;;;5076441;28;19920;-84
2022/02/14 15:22:17;;;;;;;;;;;;;;;;;;5094943;28;19912;-84
2022/02/14 15:24:44;;;;;;;;;;;;;;;;;;5076471;28;19912;-84
2022/02/14 15:27:09;;;;;;;;;;;;;;;;;;5076173;28;19912;-84
2022/02/14 15:29:34;;;;;;;;;;;;;;;;;;5076260;28;19961;-85
2022/02/14 15:32:00;;;;;;;;;;;;;;;;;;5076170;28;19912;-85
2022/02/14 15:34:25;;;;;;;;;;;;;;;;;;5076181;28;20011;-85
2022/02/14 15:36:50;;;;;;;;;;;;;;;;;;5094427;28;19993;-85
2022/02/14 15:39:15;;;;;;;;;;;;;;;;;;5076319;28;20038;-85
2022/02/14 15:41:40;;;;;;;;;;;;;;;;;;5094229;28;19912;-84
2022/02/14 15:44:06;;;;;;;;;;;;;;;;;;5094275;28;19912;-85
2022/02/14 15:46:31;;;;;;;;;;;;;;;;;;5076155;28;19978;-85
2022/02/14 15:48:56;;;;;;;;;;;;;;;;;;5076033;28;19916;-85
2022/02/14 15:51:21;;;;;;;;;;;;;;;;;;5075927;28;19939;-85
2022/02/14 15:53:46;;;;;;;;;;;;;;;;;;5093278;28;20318;-85
2022/02/14 15:56:11;;;;;;;;;;;;;;;;;;5076106;28;19942;-85
2022/02/14 15:58:37;;;;;;;;;;;;;;;;;;5094086;28;20355;-84
2022/02/14 16:01:02;;;;;;;;;;;;;;;;;;5094050;28;19916;-88
2022/02/14 16:03:27;;;;;;;;;;;;;;;;;;5075912;28;19916;-84
2022/02/14 16:05:52;;;;;;;;;;;;;;;;;;5075532;28;19916;-85
2022/02/14 16:08:17;;;;;;;;;;;;;;;;;;5076041;28;20045;-85
2022/02/14 16:10:42;;;;;;;;;;;;;;;;;;5075666;28;19977;-85
2022/02/14 16:13:07;;;;;;;;;;;;;;;;;;5075340;28;20264;-85
2022/02/14 16:15:32;;;;;;;;;;;;;;;;;;5075728;28;19916;-85
2022/02/14 16:17:57;;;;;;;;;;;;;;;;;;5075727;28;19912;-85
2022/02/14 16:20:23;;;;;;;;;;;;;;;;;;5075553;28;19916;-85
2022/02/14 16:22:48;;;;;;;;;;;;;;;;;;5075799;28;20299;-85
2022/02/14 16:25:13;;;;;;;;;;;;;;;;;;5075227;28;20375;-84
2022/02/14 16:27:38;;;;;;;;;;;;;;;;;;5093769;28;19912;-85
2022/02/14 16:30:03;;;;;;;;;;;;;;;;;;5075912;28;20403;-85
2022/02/14 16:32:28;;;;;;;;;;;;;;;;;;5092971;28;20007;-85
2022/02/14 16:34:53;;;;;;;;;;;;;;;;;;5074882;28;19916;-84
2022/02/14 16:37:19;;;;;;;;;;;;;;;;;;5075669;28;19912;-85